Dallas, Texas
Traffic Map
Current Weather Conditions
Dallas, Texas
Broken Clouds
Broken Clouds
87°
Feels Like: 88°
Wind Chill: 87° Ceiling: 25000
Heat Index: 88° Visibility: 10mi
Dew Point: 64° Wind: 15mph
Humidity: 46% Direction: 160° (SSE)
Pressure: 29.82in Gusts: 0mph
Raw Report DataKDAL 212253Z 16013KT 10SM SCT060 SCT150 BKN250 31/18 A2982 RMK AO2 SLP089 CB DSNT SE MOV NE T03060178
Traffic Incident Summary
Active as of:
Severity:
Category:
InformationThere was an issue retrieving the traffic information for this location. Please try a different location or try again shortly.
Advertisements